Terminal Aerodrome Forecast
Issued by NWS

Home | Current Version | Previous Version | Text Only | Print | Product List | Glossary On
Versions: 1 2 3 4 5 6 7 8 9 10 11 12
000
FTPA31 PHFO 251700
TAFJRF
TAF
PHJR 251731Z 2518/2618 VRB03KT P6SM FEW040
     FM252100 12007KT P6SM FEW030 SCT045
     FM260000 12009G16KT P6SM FEW030 SCT045
     FM260400 VRB03KT P6SM SCT040=

USA.gov is the U.S. government's official web portal to all federal, state and local government web resources and services.